Time;durP1;ratioP1;P1;durP2;ratioP2;P2;SDS_P1;SDS_P2;PMS_P1;PMS_P2;Temp;Humidity;BMP_temperature;BMP_pressure;BME280_temperature;BME280_humidity;BME280_pressure;Samples;Min_cycle;Max_cycle;Signal;HPM_P1;HPM_P2
2022/04/04 00:01:17;;;;;;;12.27;11.10;;;;;;;-0.51;76.29;100479.03;4971818;28;20275;-60
2022/04/04 00:03:42;;;;;;;12.93;11.73;;;;;;;-0.53;76.50;100478.19;4978491;28;20236;-60
2022/04/04 00:06:08;;;;;;;12.53;11.33;;;;;;;-0.38;76.16;100473.94;4974601;28;20200;-60
2022/04/04 00:08:34;;;;;;;16.03;11.63;;;;;;;-0.38;76.15;100472.25;4974732;28;20197;-61
2022/04/04 00:11:00;;;;;;;13.52;12.30;;;;;;;-0.13;74.54;100469.63;4966937;28;20441;-61
2022/04/04 00:13:27;;;;;;;13.07;11.93;;;;;;;-0.30;74.75;100476.44;4974171;28;20180;-60
2022/04/04 00:15:53;;;;;;;11.87;10.77;;;;;;;-0.38;74.73;100479.00;4974350;28;20272;-61
2022/04/04 00:18:18;;;;;;;12.73;11.53;;;;;;;-0.35;74.88;100471.41;4975934;28;20264;-61
2022/04/04 00:20:44;;;;;;;12.20;11.00;;;;;;;-0.33;74.87;100462.97;4967498;28;20237;-61
2022/04/04 00:23:12;;;;;;;12.37;11.07;;;;;;;-0.41;75.14;100466.34;4988071;28;20201;-61
2022/04/04 00:25:42;;;;;;;13.17;11.33;;;;;;;-0.51;75.36;100468.06;4994943;28;20652;-61
2022/04/04 00:28:07;;;;;;;12.70;11.50;;;;;;;-0.55;75.93;100468.94;4995290;28;20172;-61
2022/04/04 00:30:33;;;;;;;13.17;11.27;;;;;;;-0.61;76.50;100458.84;4989217;28;20236;-60
2022/04/04 00:32:58;;;;;;;12.17;11.07;;;;;;;-0.66;77.24;100452.13;5005671;28;20543;-61
2022/04/04 00:35:24;;;;;;;11.53;10.43;;;;;;;-0.71;77.18;100458.03;4995207;28;20193;-61
2022/04/04 00:37:49;;;;;;;12.43;11.23;;;;;;;-0.63;76.64;100458.00;4993286;28;20180;-62
2022/04/04 00:40:14;;;;;;;12.43;11.33;;;;;;;-0.69;76.79;100449.59;4986062;28;20185;-62
2022/04/04 00:42:40;;;;;;;11.73;10.53;;;;;;;-0.68;76.62;100452.97;4992981;28;20262;-62
2022/04/04 00:45:06;;;;;;;11.97;10.87;;;;;;;-0.67;76.52;100450.44;4992826;28;20240;-61
2022/04/04 00:47:32;;;;;;;13.97;11.43;;;;;;;-0.69;76.62;100453.81;4993432;28;20615;-60
2022/04/04 00:49:57;;;;;;;12.40;11.33;;;;;;;-0.77;76.55;100451.31;4994455;28;20242;-61
2022/04/04 00:52:23;;;;;;;12.10;10.90;;;;;;;-0.88;77.38;100447.94;4983581;28;20220;-61
2022/04/04 00:54:48;;;;;;;12.60;11.40;;;;;;;-0.85;78.01;100445.44;4992578;28;20720;-61
2022/04/04 00:57:14;;;;;;;13.17;11.77;;;;;;;-0.85;77.34;100446.25;4994944;28;20287;-61
2022/04/04 00:59:39;;;;;;;14.60;12.20;;;;;;;-0.88;77.78;100432.78;4994565;28;20188;-62
2022/04/04 01:02:05;;;;;;;12.43;11.23;;;;;;;-0.89;78.07;100439.53;4985617;28;20236;-63
2022/04/04 01:04:30;;;;;;;11.67;10.40;;;;;;;-0.90;77.32;100432.81;4992476;28;20611;-62
2022/04/04 01:07:01;;;;;;;12.13;11.07;;;;;;;-0.91;77.76;100440.41;4994408;28;20292;-61
2022/04/04 01:09:27;;;;;;;12.73;11.50;;;;;;;-1.01;78.08;100432.00;4992743;28;20427;-62
2022/04/04 01:12:08;;;;;;;12.40;11.20;;;;;;;-0.99;78.15;100436.19;4985824;28;20540;-61
2022/04/04 01:14:36;;;;;;;13.63;11.70;;;;;;;-0.95;78.54;100423.56;4993431;28;20658;-62
2022/04/04 01:17:02;;;;;;;13.60;12.30;;;;;;;-0.95;78.67;100421.06;4992330;28;20469;-61
2022/04/04 01:19:28;;;;;;;13.00;11.70;;;;;;;-0.96;78.66;100419.38;4992737;28;20423;-62
2022/04/04 01:21:53;;;;;;;12.70;11.40;;;;;;;-1.08;79.47;100413.50;4997749;28;20478;-62
2022/04/04 01:24:20;;;;;;;12.73;10.73;;;;;;;-1.04;80.23;100421.88;4974120;28;20193;-62
2022/04/04 01:26:49;;;;;;;13.23;11.93;;;;;;;-0.99;79.62;100417.69;4973386;28;20178;-61
2022/04/04 01:29:15;;;;;;;13.27;11.97;;;;;;;-1.02;79.74;100417.69;4973309;28;20431;-62
2022/04/04 01:31:41;;;;;;;11.47;10.47;;;;;;;-1.06;78.92;100416.84;4989887;28;20805;-62
2022/04/04 01:34:06;;;;;;;11.33;10.33;;;;;;;-1.05;78.92;100410.13;4975283;28;20268;-62
2022/04/04 01:36:31;;;;;;;11.27;10.23;;;;;;;-1.07;78.72;100411.78;4974152;28;20497;-62
2022/04/04 01:38:57;;;;;;;13.90;11.27;;;;;;;-1.02;79.01;100408.44;4982406;28;20186;-62
2022/04/04 01:41:22;;;;;;;17.47;11.50;;;;;;;-0.95;79.17;100414.31;4993888;28;20226;-62
2022/04/04 01:43:47;;;;;;;12.40;10.93;;;;;;;-0.99;78.82;100412.63;4998355;28;20256;-62
2022/04/04 01:46:24;;;;;;;11.60;10.50;;;;;;;-0.86;78.15;100418.50;4993517;28;20172;-61
2022/04/04 01:48:54;;;;;;;12.83;11.50;;;;;;;-0.75;77.70;100414.25;4993541;28;20175;-61
2022/04/04 01:51:20;;;;;;;12.07;10.90;;;;;;;-0.70;77.57;100407.50;4984110;28;20501;-62
2022/04/04 01:53:46;;;;;;;11.67;10.47;;;;;;;-0.69;77.71;100404.13;4984169;28;20675;-62
2022/04/04 01:56:12;;;;;;;12.07;10.60;;;;;;;-0.67;77.71;100399.06;4973833;28;20549;-61
2022/04/04 01:58:39;;;;;;;12.33;11.13;;;;;;;-0.59;77.33;100404.09;4974336;28;20232;-61
2022/04/04 02:01:15;;;;;;;12.03;10.93;;;;;;;-0.62;76.91;100404.97;4965660;28;20520;-62
2022/04/04 02:03:42;;;;;;;12.27;10.97;;;;;;;-0.44;76.41;100401.50;4979053;28;20491;-62
2022/04/04 02:06:07;;;;;;;11.40;10.33;;;;;;;-0.35;76.86;100393.03;4972392;28;20191;-60
2022/04/04 02:08:33;;;;;;;12.57;11.37;;;;;;;-0.34;76.35;100397.25;4973797;28;20176;-62
2022/04/04 02:10:59;;;;;;;12.20;10.83;;;;;;;-0.47;77.19;100393.94;4970975;28;20634;-62
2022/04/04 02:13:25;;;;;;;14.77;11.20;;;;;;;-0.43;77.18;100395.59;4980293;28;20194;-64
2022/04/04 02:15:57;;;;;;;11.83;10.63;;;;;;;-0.47;77.98;100393.94;4973372;28;20676;-63
2022/04/04 02:18:23;;;;;;;11.07;10.03;;;;;;;-0.61;79.41;100393.16;4972277;28;20186;-62
2022/04/04 02:20:49;;;;;;;12.90;11.57;;;;;;;-0.58;78.70;100391.47;4965367;28;20602;-63
2022/04/04 02:23:18;;;;;;;10.77;9.77;;;;;;;-0.72;78.05;100395.72;4996893;28;20212;-62
2022/04/04 02:25:48;;;;;;;12.00;10.93;;;;;;;-0.77;78.50;100389.84;4990962;28;20227;-61
2022/04/04 02:28:14;;;;;;;13.37;10.80;;;;;;;-0.86;79.65;100389.00;4991054;28;20184;-62
2022/04/04 02:30:40;;;;;;;11.17;9.97;;;;;;;-0.93;80.63;100389.03;4984311;28;20261;-62
2022/04/04 02:33:06;;;;;;;12.47;11.07;;;;;;;-0.95;81.39;100390.75;4991036;28;20170;-62
2022/04/04 02:35:31;;;;;;;12.13;10.93;;;;;;;-0.86;80.89;100385.66;4990762;28;20490;-61
2022/04/04 02:37:57;;;;;;;11.17;10.07;;;;;;;-0.85;79.83;100384.81;4989854;28;20203;-62
2022/04/04 02:40:22;;;;;;;12.00;10.77;;;;;;;-0.81;79.43;100386.47;4985314;28;20220;-60
2022/04/04 02:42:48;;;;;;;12.10;10.87;;;;;;;-0.89;79.86;100383.97;5005060;28;20628;-61
2022/04/04 02:45:14;;;;;;;11.17;10.17;;;;;;;-0.98;79.86;100382.31;4991944;28;20527;-61
2022/04/04 02:47:40;;;;;;;11.23;10.13;;;;;;;-0.98;80.85;100381.47;4991303;28;20192;-62
2022/04/04 02:50:06;;;;;;;10.97;9.97;;;;;;;-0.94;80.87;100383.16;4981455;28;20220;-61
2022/04/04 02:52:31;;;;;;;12.27;10.63;;;;;;;-0.96;81.09;100378.97;4987316;28;20189;-61
2022/04/04 02:54:56;;;;;;;11.87;10.77;;;;;;;-1.10;81.79;100378.97;4972544;28;20534;-60
2022/04/04 02:57:22;;;;;;;12.33;11.13;;;;;;;-1.05;81.91;100387.41;4973056;28;20257;-61
2022/04/04 02:59:47;;;;;;;11.73;10.67;;;;;;;-1.06;81.56;100376.44;4972779;28;20214;-63
2022/04/04 03:02:12;;;;;;;11.47;10.27;;;;;;;-1.29;82.26;100373.94;4984560;28;20223;-62
2022/04/04 03:04:40;;;;;;;12.10;10.87;;;;;;;-1.18;82.96;100371.41;4972727;28;20209;-63
2022/04/04 03:07:07;;;;;;;11.90;10.70;;;;;;;-1.08;82.60;100369.72;4972865;28;20187;-62
2022/04/04 03:09:32;;;;;;;11.40;10.30;;;;;;;-0.98;82.33;100363.78;4971448;28;20449;-61
2022/04/04 03:11:58;;;;;;;12.73;11.53;;;;;;;-0.87;82.19;100362.09;4964511;28;20253;-61
2022/04/04 03:14:23;;;;;;;11.63;10.43;;;;;;;-0.91;80.78;100357.06;4972713;28;20185;-61
2022/04/04 03:16:48;;;;;;;10.73;9.80;;;;;;;-0.88;81.00;100352.84;4976034;28;20232;-61
2022/04/04 03:19:14;;;;;;;10.63;9.63;;;;;;;-0.88;80.52;100352.84;4974721;28;20284;-61
2022/04/04 03:21:40;;;;;;;11.47;10.27;;;;;;;-1.08;80.92;100352.03;4966575;28;20690;-62
2022/04/04 03:24:06;;;;;;;10.27;9.27;;;;;;;-0.96;80.73;100349.47;4994249;28;20213;-62
2022/04/04 03:26:32;;;;;;;10.27;9.27;;;;;;;-0.84;80.45;100348.63;4992100;28;20170;-61
2022/04/04 03:28:57;;;;;;;9.60;8.70;;;;;;;-0.73;79.27;100346.88;4991986;28;20549;-60
2022/04/04 03:31:23;;;;;;;11.73;9.40;;;;;;;-0.82;77.59;100342.72;4963685;28;20224;-63
2022/04/04 03:33:48;;;;;;;9.80;8.70;;;;;;;-0.67;76.79;100343.47;4996259;28;20184;-61
2022/04/04 03:36:14;;;;;;;10.57;9.57;;;;;;;-0.65;76.42;100342.63;4989796;28;20609;-61
2022/04/04 03:38:39;;;;;;;10.50;9.57;;;;;;;-0.56;76.16;100341.75;4993386;28;20551;-61
2022/04/04 03:41:05;;;;;;;10.27;9.37;;;;;;;-0.54;75.76;100337.53;4985584;28;20259;-61
2022/04/04 03:43:31;;;;;;;9.83;8.90;;;;;;;-0.43;75.89;100336.66;4994623;28;20183;-61
2022/04/04 03:45:56;;;;;;;10.10;9.07;;;;;;;-0.54;74.31;100334.16;4994536;28;20180;-61
2022/04/04 03:48:22;;;;;;;10.07;9.07;;;;;;;-0.49;74.20;100324.88;4995866;28;20182;-61
2022/04/04 03:50:47;;;;;;;10.77;9.77;;;;;;;-0.46;74.22;100327.38;4981287;28;20228;-62
2022/04/04 03:53:13;;;;;;;10.73;9.63;;;;;;;-0.47;73.81;100324.84;4994709;28;20210;-61
2022/04/04 03:55:40;;;;;;;10.10;9.13;;;;;;;-0.28;73.40;100321.38;4995610;28;20701;-61
2022/04/04 03:58:09;;;;;;;10.50;9.50;;;;;;;-0.25;72.69;100313.78;4995635;28;20183;-62
2022/04/04 04:00:36;;;;;;;10.47;9.47;;;;;;;-0.21;72.79;100309.53;4989612;28;20240;-62
2022/04/04 04:03:01;;;;;;;10.00;9.10;;;;;;;-0.17;72.86;100308.66;4993301;28;20231;-61
2022/04/04 04:05:27;;;;;;;10.43;9.43;;;;;;;-0.18;73.35;100305.28;4995407;28;20189;-61
2022/04/04 04:07:53;;;;;;;10.27;9.27;;;;;;;-0.21;73.07;100301.94;4993977;28;20195;-61
2022/04/04 04:10:18;;;;;;;10.30;9.30;;;;;;;-0.24;74.18;100305.31;4987793;28;20268;-61
2022/04/04 04:12:45;;;;;;;10.83;9.93;;;;;;;-0.37;75.24;100299.53;5008101;28;20197;-60
2022/04/04 04:15:14;;;;;;;10.20;9.20;;;;;;;-0.35;75.36;100299.50;4993782;28;20535;-60
2022/04/04 04:17:39;;;;;;;10.23;9.30;;;;;;;-0.31;75.43;100301.19;4993901;28;20329;-61
2022/04/04 04:20:23;;;;;;;10.07;9.07;;;;;;;-0.32;76.08;100294.44;4985243;28;20210;-61
2022/04/04 04:22:54;;;;;;;10.40;9.50;;;;;;;-0.31;76.27;100302.84;4987633;28;20209;-60
2022/04/04 04:25:20;;;;;;;12.30;11.10;;;;;;;-0.54;78.06;100299.63;4974357;28;20340;-61
2022/04/04 04:27:47;;;;;;;12.77;11.43;;;;;;;-0.59;78.03;100297.97;4975996;28;20201;-60
2022/04/04 04:30:16;;;;;;;11.97;10.93;;;;;;;-0.46;77.77;100296.22;4966876;28;20485;-60
2022/04/04 04:32:48;;;;;;;10.93;9.90;;;;;;;-0.40;77.46;100291.94;4993089;28;20626;-61
2022/04/04 04:35:13;;;;;;;11.03;10.03;;;;;;;-0.37;76.97;100293.63;4993274;28;20276;-61
2022/04/04 04:37:39;;;;;;;11.17;10.07;;;;;;;-0.36;76.56;100291.09;4994643;28;20308;-60
2022/04/04 04:40:05;;;;;;;12.13;10.97;;;;;;;-0.46;76.61;100291.16;4983415;28;20200;-62
2022/04/04 04:42:33;;;;;;;11.53;9.43;;;;;;;-0.58;75.97;100285.31;4977860;28;20695;-62
2022/04/04 04:44:59;;;;;;;10.17;9.17;;;;;;;-0.56;75.12;100278.59;4993061;28;20186;-61
2022/04/04 04:47:24;;;;;;;10.33;9.13;;;;;;;-0.64;75.63;100282.84;4994806;28;20193;-64
2022/04/04 04:49:50;;;;;;;9.70;8.77;;;;;;;-0.66;75.99;100280.31;4992259;28;20177;-64
2022/04/04 04:52:15;;;;;;;10.20;9.20;;;;;;;-0.64;75.56;100282.84;4982960;28;20224;-63
2022/04/04 04:54:42;;;;;;;11.10;9.67;;;;;;;-0.62;76.13;100282.81;4993096;28;20201;-61
2022/04/04 04:57:08;;;;;;;9.70;8.70;;;;;;;-0.77;75.72;100282.06;4994394;28;20201;-61
2022/04/04 04:59:33;;;;;;;11.83;9.17;;;;;;;-0.60;75.51;100271.03;4994570;28;20762;-59
2022/04/04 05:01:59;;;;;;;11.40;9.10;;;;;;;-0.62;74.96;100273.56;4998924;28;20241;-59
2022/04/04 05:04:24;;;;;;;11.47;9.33;;;;;;;-0.60;74.61;100266.81;4994452;28;20543;-62
2022/04/04 05:06:49;;;;;;;9.63;8.73;;;;;;;-0.57;74.01;100269.31;4994341;28;20178;-63
2022/04/04 05:09:16;;;;;;;9.33;8.40;;;;;;;-0.55;73.54;100257.50;4994341;28;20310;-61
2022/04/04 05:11:42;;;;;;;10.20;9.20;;;;;;;-0.55;73.76;100260.03;4985993;28;20232;-61
2022/04/04 05:14:09;;;;;;;11.40;10.20;;;;;;;-0.71;73.94;100253.41;4996221;28;20429;-61
2022/04/04 05:16:34;;;;;;;9.77;8.87;;;;;;;-0.65;73.88;100260.94;4994220;28;20236;-62
2022/04/04 05:19:00;;;;;;;10.57;9.23;;;;;;;-0.50;73.74;100254.94;4992745;28;20525;-63
2022/04/04 05:21:25;;;;;;;10.30;9.30;;;;;;;-0.44;73.22;100256.63;4994513;28;20230;-62
2022/04/04 05:23:50;;;;;;;10.90;9.83;;;;;;;-0.38;73.06;100257.41;4983598;28;20216;-62
2022/04/04 05:26:16;;;;;;;11.23;10.03;;;;;;;-0.33;72.58;100249.78;4974574;28;20178;-61
2022/04/04 05:28:42;;;;;;;9.83;8.83;;;;;;;-0.21;72.57;100251.38;4975847;28;20178;-60
2022/04/04 05:31:08;;;;;;;11.17;9.97;;;;;;;-0.11;72.59;100258.06;4983266;28;20234;-60
2022/04/04 05:33:34;;;;;;;16.13;9.13;;;;;;;0.01;71.95;100253.75;4992895;28;20277;-60
2022/04/04 05:36:00;;;;;;;10.40;9.40;;;;;;;0.08;70.78;100260.44;4993588;28;20559;-60
2022/04/04 05:38:26;;;;;;;10.03;9.13;;;;;;;0.13;70.01;100251.09;4993820;28;20536;-60
2022/04/04 05:40:51;;;;;;;10.30;9.27;;;;;;;0.31;68.70;100253.47;4983218;28;20234;-61
2022/04/04 05:43:18;;;;;;;10.77;9.70;;;;;;;0.39;68.71;100252.53;4990747;28;20526;-61
2022/04/04 05:45:43;;;;;;;10.37;9.20;;;;;;;0.48;68.41;100248.22;5011790;28;20185;-60
2022/04/04 05:48:09;;;;;;;9.93;9.03;;;;;;;0.42;69.13;100245.75;5012341;28;20190;-60
2022/04/04 05:50:34;;;;;;;9.60;8.70;;;;;;;0.48;69.43;100252.44;4996482;28;20226;-61
2022/04/04 05:52:59;;;;;;;10.13;9.13;;;;;;;0.63;69.16;100259.03;4984133;28;20186;-61
2022/04/04 05:55:25;;;;;;;9.70;8.80;;;;;;;0.58;68.91;100258.25;5012491;28;20205;-61
2022/04/04 05:57:50;;;;;;;11.10;10.00;;;;;;;0.82;68.91;100254.63;5012631;28;20206;-61
2022/04/04 06:00:16;;;;;;;10.67;9.63;;;;;;;1.04;67.35;100256.88;5003010;28;20175;-60
2022/04/04 06:02:45;;;;;;;12.33;9.90;;;;;;;1.23;66.71;100250.72;4997142;28;20269;-61
2022/04/04 06:05:11;;;;;;;13.20;10.37;;;;;;;1.04;66.63;100246.72;5011033;28;20244;-61
2022/04/04 06:07:38;;;;;;;11.17;10.07;;;;;;;1.07;66.17;100246.72;5010361;28;20186;-60
2022/04/04 06:10:05;;;;;;;10.40;9.10;;;;;;;1.21;65.82;100243.97;5003186;28;20192;-61
2022/04/04 06:12:31;;;;;;;11.77;8.87;;;;;;;1.16;64.97;100238.97;4981021;28;20187;-60
2022/04/04 06:14:56;;;;;;;9.80;8.90;;;;;;;1.07;64.25;100234.88;5001421;28;20194;-62
2022/04/04 06:17:22;;;;;;;12.20;9.43;;;;;;;1.08;65.50;100243.28;5007844;28;20202;-62
2022/04/04 06:19:47;;;;;;;9.57;8.77;;;;;;;1.36;64.82;100236.16;5011628;28;20182;-62
2022/04/04 06:22:12;;;;;;;9.27;8.47;;;;;;;1.57;63.47;100236.72;4994574;28;20219;-61
2022/04/04 06:24:38;;;;;;;9.33;8.33;;;;;;;1.76;62.56;100232.16;5010310;28;20182;-62
2022/04/04 06:27:04;;;;;;;10.93;8.60;;;;;;;1.87;62.23;100240.47;4998218;28;20183;-62
2022/04/04 06:29:29;;;;;;;9.63;8.73;;;;;;;1.68;61.24;100227.22;5005799;28;20266;-61
2022/04/04 06:31:56;;;;;;;9.33;8.03;;;;;;;1.72;60.86;100228.03;4981896;28;20314;-61
2022/04/04 06:34:22;;;;;;;9.37;7.20;;;;;;;1.85;60.03;100224.44;5007208;28;20186;-61
2022/04/04 06:36:47;;;;;;;8.73;7.83;;;;;;;2.11;58.75;100228.22;5008819;28;20233;-62
2022/04/04 06:39:14;;;;;;;8.83;7.53;;;;;;;2.13;57.40;100225.66;5011609;28;20266;-62
2022/04/04 06:41:39;;;;;;;8.07;7.37;;;;;;;2.33;57.23;100217.69;4989895;28;21037;-62
2022/04/04 06:44:05;;;;;;;7.17;6.47;;;;;;;2.67;56.24;100220.41;4998519;28;20221;-62
2022/04/04 06:46:31;;;;;;;7.70;6.90;;;;;;;3.26;54.48;100218.34;5008733;28;20705;-61
2022/04/04 06:48:57;;;;;;;8.40;6.97;;;;;;;3.67;52.52;100219.06;5007310;28;20271;-64
2022/04/04 06:51:23;;;;;;;8.50;7.37;;;;;;;4.75;50.08;100206.09;4998824;28;20225;-64
2022/04/04 06:53:48;;;;;;;7.57;6.73;;;;;;;6.10;46.69;100202.75;5003357;28;20699;-67
2022/04/04 06:56:14;;;;;;;6.83;6.07;;;;;;;7.06;42.65;100198.47;5008013;28;20242;-62
2022/04/04 06:58:39;;;;;;;6.50;5.90;;;;;;;7.86;40.48;100190.16;5008988;28;20194;-62
2022/04/04 07:01:06;;;;;;;5.83;5.33;;;;;;;8.43;39.56;100191.97;4974275;28;20230;-63
2022/04/04 07:03:31;;;;;;;6.00;5.40;;;;;;;8.82;37.91;100188.56;4995488;28;20226;-62
2022/04/04 07:05:57;;;;;;;7.60;5.83;;;;;;;9.06;37.83;100193.47;5008565;28;20514;-62
2022/04/04 07:08:22;;;;;;;6.40;5.27;;;;;;;9.42;37.05;100194.38;5009874;28;20179;-63
2022/04/04 07:10:48;;;;;;;6.17;5.53;;;;;;;9.90;36.00;100187.72;4994842;28;20230;-63
2022/04/04 07:13:13;;;;;;;6.43;5.83;;;;;;;8.97;36.80;100184.47;4987194;28;20194;-61
2022/04/04 07:15:41;;;;;;;7.63;6.43;;;;;;;9.49;36.26;100182.91;5000683;28;20317;-64
2022/04/04 07:18:06;;;;;;;6.73;6.07;;;;;;;8.96;36.91;100187.94;5007219;28;20202;-62
2022/04/04 07:20:32;;;;;;;6.30;5.70;;;;;;;9.38;36.74;100178.28;4998804;28;20250;-65
2022/04/04 07:22:58;;;;;;;6.73;6.13;;;;;;;10.47;35.06;100176.28;5002785;28;20195;-69
2022/04/04 07:25:24;;;;;;;10.90;6.13;;;;;;;11.30;33.46;100171.75;4995867;28;20576;-64
2022/04/04 07:27:49;;;;;;;9.57;5.67;;;;;;;10.21;34.36;100167.31;5004827;28;20197;-68
2022/04/04 07:30:17;;;;;;;9.07;5.97;;;;;;;11.52;32.83;100157.63;4976301;28;20266;-65
2022/04/04 07:32:43;;;;;;;8.43;6.40;;;;;;;11.97;32.06;100147.34;4969041;28;20545;-65
2022/04/04 07:35:11;;;;;;;6.40;5.70;;;;;;;11.10;32.56;100162.56;5010670;28;20265;-64
2022/04/04 07:37:37;;;;;;;6.37;5.87;;;;;;;11.40;32.20;100150.63;5008058;28;20294;-64
2022/04/04 07:40:05;;;;;;;8.57;5.70;;;;;;;10.49;33.68;100153.88;4997893;28;20191;-64
2022/04/04 07:42:30;;;;;;;5.80;5.30;;;;;;;10.74;33.25;100142.25;4990656;28;20195;-64
2022/04/04 07:44:55;;;;;;;6.53;5.93;;;;;;;11.18;33.14;100149.28;4991441;28;20168;-64
2022/04/04 07:47:21;;;;;;;7.53;5.77;;;;;;;10.68;33.67;100150.31;4990723;28;20615;-65
2022/04/04 07:49:46;;;;;;;8.17;5.50;;;;;;;10.89;34.19;100146.59;4994953;28;20680;-66
2022/04/04 07:52:11;;;;;;;6.63;5.90;;;;;;;10.61;33.50;100142.13;4987498;28;20219;-67
2022/04/04 07:54:37;;;;;;;6.53;5.93;;;;;;;9.91;34.58;100142.28;4991998;28;20203;-68
2022/04/04 07:57:02;;;;;;;6.27;5.67;;;;;;;10.40;34.98;100139.75;4992340;28;20191;-68
2022/04/04 07:59:27;;;;;;;7.93;5.60;;;;;;;10.65;33.80;100134.16;4992424;28;20171;-68
2022/04/04 08:01:53;;;;;;;7.27;6.17;;;;;;;10.91;33.65;100131.88;4995774;28;20317;-67
2022/04/04 08:04:19;;;;;;;8.07;7.17;;;;;;;10.58;34.81;100134.53;4989886;28;20707;-68
2022/04/04 08:06:45;;;;;;;9.37;7.30;;;;;;;10.71;34.29;100135.53;4973086;28;20184;-69
2022/04/04 08:09:10;;;;;;;9.20;5.90;;;;;;;11.16;34.33;100124.53;4971785;28;20228;-68
2022/04/04 08:11:36;;;;;;;8.20;5.70;;;;;;;11.68;33.64;100126.66;4974270;28;20864;-68
2022/04/04 08:14:01;;;;;;;6.93;6.20;;;;;;;12.86;31.95;100119.56;4974864;28;20280;-62
2022/04/04 08:16:27;;;;;;;8.40;6.37;;;;;;;12.61;31.19;100115.94;4992856;28;20211;-64
2022/04/04 08:18:53;;;;;;;10.17;6.17;;;;;;;12.43;31.74;100116.19;5010735;28;20182;-65
2022/04/04 08:21:19;;;;;;;6.27;5.67;;;;;;;12.57;30.87;100106.75;4985240;28;20219;-65
2022/04/04 08:23:44;;;;;;;5.87;5.10;;;;;;;12.95;30.78;100106.06;4989107;28;20214;-64
2022/04/04 08:26:10;;;;;;;7.03;5.77;;;;;;;13.18;29.67;100098.56;4997016;28;20187;-66
2022/04/04 08:28:37;;;;;;;4.83;4.43;;;;;;;12.77;30.28;100099.50;5001509;28;20183;-64
2022/04/04 08:31:02;;;;;;;5.53;5.03;;;;;;;13.85;29.64;100095.03;4986005;28;20329;-60
2022/04/04 08:33:28;;;;;;;5.77;5.07;;;;;;;14.74;27.73;100095.75;4993888;28;20270;-63
2022/04/04 08:35:55;;;;;;;9.20;5.43;;;;;;;14.24;28.28;100079.44;5014263;28;20237;-63
2022/04/04 08:38:21;;;;;;;5.80;4.80;;;;;;;13.54;28.27;100092.78;5013404;28;20265;-64
2022/04/04 08:40:48;;;;;;;5.07;4.67;;;;;;;13.27;28.90;100076.47;5000391;28;20381;-63
2022/04/04 08:43:16;;;;;;;5.03;4.53;;;;;;;15.06;27.55;100074.44;5013446;28;20202;-63
2022/04/04 08:45:42;;;;;;;4.73;4.33;;;;;;;14.88;27.12;100075.78;5012907;28;20179;-63
2022/04/04 08:48:09;;;;;;;6.83;5.27;;;;;;;15.20;26.60;100077.78;5013075;28;20653;-62
2022/04/04 08:50:36;;;;;;;5.40;4.90;;;;;;;14.61;27.35;100075.06;4998984;28;20221;-62
2022/04/04 08:53:03;;;;;;;6.00;4.80;;;;;;;15.18;26.96;100064.91;4981286;28;20179;-62
2022/04/04 08:55:28;;;;;;;7.20;5.27;;;;;;;16.90;25.04;100062.03;4994732;28;20266;-64
2022/04/04 08:57:56;;;;;;;11.17;4.07;;;;;;;16.92;24.59;100052.38;4994405;28;20282;-63
2022/04/04 09:00:21;;;;;;;5.37;4.30;;;;;;;15.31;25.81;100057.06;4982729;28;20183;-62
2022/04/04 09:03:02;;;;;;;5.07;4.43;;;;;;;15.95;25.42;100050.50;4979777;28;20238;-62
2022/04/04 09:05:29;;;;;;;4.40;3.80;;;;;;;15.75;25.63;100046.84;4993240;28;20487;-62
2022/04/04 09:08:06;;;;;;;5.37;4.10;;;;;;;14.89;26.24;100039.41;4992980;28;20254;-61
2022/04/04 09:10:34;;;;;;;5.20;4.10;;;;;;;14.88;26.49;100044.72;4984047;28;20231;-62
2022/04/04 09:13:12;;;;;;;5.00;4.50;;;;;;;14.92;25.99;100041.78;4980754;28;20213;-62
2022/04/04 09:15:59;;;;;;;4.70;4.30;;;;;;;14.03;27.24;100052.38;4993072;28;20187;-62
2022/04/04 09:18:50;;;;;;;6.50;4.73;;;;;;;13.82;27.21;100046.13;4994403;28;20172;-63
2022/04/04 09:21:38;;;;;;;4.67;4.27;;;;;;;14.95;26.79;100018.25;4985190;28;20226;-61
2022/04/04 09:24:07;;;;;;;4.90;4.43;;;;;;;16.57;25.12;100014.47;4977024;28;20196;-63
2022/04/04 09:26:41;;;;;;;4.40;4.00;;;;;;;16.42;23.99;100004.41;4984934;28;20203;-62
2022/04/04 09:29:08;;;;;;;5.23;4.20;;;;;;;15.93;25.04;99993.56;5011678;28;20607;-63
2022/04/04 09:31:34;;;;;;;5.53;4.20;;;;;;;16.22;25.43;99997.38;4992158;28;20242;-64
2022/04/04 09:34:04;;;;;;;4.27;3.87;;;;;;;15.46;25.43;99988.50;5009355;28;20593;-62
2022/04/04 09:36:31;;;;;;;4.40;4.00;;;;;;;15.63;25.61;99983.81;5008449;28;20208;-62
2022/04/04 09:39:03;;;;;;;6.23;5.10;;;;;;;16.37;25.35;99978.00;5006041;28;20316;-62
2022/04/04 09:41:30;;;;;;;4.57;4.17;;;;;;;15.32;25.64;99981.78;4992615;28;20226;-63
2022/04/04 09:43:58;;;;;;;4.83;4.43;;;;;;;14.94;26.57;99982.09;5008515;28;20187;-63
2022/04/04 09:46:29;;;;;;;4.10;3.70;;;;;;;13.41;27.48;99988.59;5008635;28;20191;-62
2022/04/04 09:49:10;;;;;;;3.60;3.30;;;;;;;11.82;28.58;99960.94;5011417;28;20995;-63
2022/04/04 09:51:36;;;;;;;4.03;3.67;;;;;;;12.17;29.73;99960.50;4991485;28;20236;-65
2022/04/04 09:54:03;;;;;;;4.73;3.50;;;;;;;11.72;28.71;99955.50;5007013;28;20273;-62
2022/04/04 09:56:29;;;;;;;3.90;3.60;;;;;;;12.90;28.05;99955.81;5010847;28;20195;-63
2022/04/04 09:58:54;;;;;;;3.60;3.30;;;;;;;14.22;26.28;99939.84;5008419;28;20175;-62
2022/04/04 10:01:20;;;;;;;4.50;3.30;;;;;;;14.01;26.11;99948.19;5001341;28;20231;-64
2022/04/04 10:03:46;;;;;;;3.50;3.20;;;;;;;13.65;26.63;99939.53;5002582;28;20252;-63
2022/04/04 10:06:13;;;;;;;3.07;2.87;;;;;;;13.69;26.92;99935.81;5011536;28;20198;-63
2022/04/04 10:08:39;;;;;;;5.93;3.03;;;;;;;12.98;27.46;99930.28;5012226;28;20175;-63
2022/04/04 10:11:08;;;;;;;3.80;3.50;;;;;;;12.69;27.99;99924.47;4993872;28;20246;-63
2022/04/04 10:13:34;;;;;;;4.70;3.47;;;;;;;13.63;27.83;99913.00;5001572;28;20681;-63
2022/04/04 10:16:00;;;;;;;3.50;3.20;;;;;;;14.98;25.84;99917.03;5009966;28;20202;-61
2022/04/04 10:18:25;;;;;;;4.67;3.40;;;;;;;15.94;24.97;99904.44;4998190;28;20191;-62
2022/04/04 10:20:55;;;;;;;4.20;3.50;;;;;;;16.77;23.30;99903.78;4983979;28;20215;-65
2022/04/04 10:23:23;;;;;;;3.90;3.50;;;;;;;15.68;24.27;99887.50;5000323;28;20203;-62
2022/04/04 10:25:52;;;;;;;4.23;3.50;;;;;;;16.83;23.48;99887.69;5009873;28;20186;-63
2022/04/04 10:28:27;;;;;;;4.63;3.37;;;;;;;16.14;24.53;99876.88;5011812;28;20182;-63
2022/04/04 10:30:57;;;;;;;3.87;3.53;;;;;;;16.22;24.44;99868.44;4997508;28;20756;-62
2022/04/04 10:33:26;;;;;;;6.73;3.97;;;;;;;15.48;24.83;99869.19;5011328;28;20258;-63
2022/04/04 10:36:00;;;;;;;4.93;3.60;;;;;;;14.34;26.16;99860.53;5010736;28;20214;-64
2022/04/04 10:38:36;;;;;;;4.57;3.87;;;;;;;13.78;27.27;99861.13;5011227;28;20252;-63
2022/04/04 10:41:07;;;;;;;3.77;3.47;;;;;;;13.61;27.85;99844.25;5001666;28;20308;-62
2022/04/04 10:43:40;;;;;;;3.60;3.33;;;;;;;13.36;27.75;99841.59;5002901;28;20261;-63
2022/04/04 10:46:12;;;;;;;4.97;3.30;;;;;;;13.42;27.80;99842.13;4995075;28;20195;-65
2022/04/04 10:48:47;;;;;;;4.87;3.37;;;;;;;13.86;27.18;99831.19;4994216;28;20186;-62
2022/04/04 10:51:18;;;;;;;3.50;3.20;;;;;;;12.79;28.66;99827.47;4992842;28;20270;-63
2022/04/04 10:53:43;;;;;;;3.73;3.17;;;;;;;12.21;29.23;99812.38;4993442;28;20563;-64
2022/04/04 10:56:11;;;;;;;3.77;3.40;;;;;;;12.22;29.54;99826.94;4994625;28;20213;-63
2022/04/04 10:58:37;;;;;;;5.07;3.33;;;;;;;12.55;29.50;99819.63;4991317;28;20282;-65
2022/04/04 11:01:19;;;;;;;5.37;3.40;;;;;;;12.67;29.43;99802.50;4982176;28;20675;-64
2022/04/04 11:03:50;;;;;;;3.50;3.20;;;;;;;12.58;29.22;99820.25;4997689;28;20329;-63
2022/04/04 11:09:11;;;;;;;4.13;3.73;;;;;;;11.75;29.34;99802.47;4992468;28;20247;-65
2022/04/04 11:11:47;;;;;;;3.60;3.30;;;;;;;10.96;30.34;99807.34;4984031;28;20234;-65
2022/04/04 11:14:14;;;;;;;3.63;3.30;;;;;;;10.97;30.42;99785.84;4990013;28;20170;-65
2022/04/04 11:17:17;;;;;;;4.63;4.15;;;;;;;11.37;30.00;99780.78;4973129;28;20447;-64
2022/04/04 11:19:53;;;;;;;3.40;3.20;;;;;;;11.28;30.29;99789.09;4990957;28;20179;-64
2022/04/04 11:22:21;;;;;;;4.47;3.87;;;;;;;11.13;30.46;99780.56;4987056;28;20259;-64
2022/04/04 11:24:51;;;;;;;4.17;3.87;;;;;;;11.24;30.02;99782.50;4971663;28;20237;-64